sensor_id;sensor_type;location;lat;lon;timestamp;P1;durP1;ratioP1;P2;durP2;ratioP2
2546;SDS011;1283;47.982;7.834;2023-10-19T00:01:20;5.07;;;2.92;;
2546;SDS011;1283;47.982;7.834;2023-10-19T00:03:50;11.07;;;5.10;;
2546;SDS011;1283;47.982;7.834;2023-10-19T00:06:16;16.27;;;9.88;;
2546;SDS011;1283;47.982;7.834;2023-10-19T00:08:43;20.45;;;11.68;;
2546;SDS011;1283;47.982;7.834;2023-10-19T00:11:09;20.50;;;12.25;;
2546;SDS011;1283;47.982;7.834;2023-10-19T00:13:48;19.77;;;13.40;;
2546;SDS011;1283;47.982;7.834;2023-10-19T00:16:15;23.45;;;13.43;;
2546;SDS011;1283;47.982;7.834;2023-10-19T00:18:42;25.73;;;13.02;;
2546;SDS011;1283;47.982;7.834;2023-10-19T00:21:08;20.85;;;13.32;;
2546;SDS011;1283;47.982;7.834;2023-10-19T00:23:44;22.13;;;12.68;;
2546;SDS011;1283;47.982;7.834;2023-10-19T00:26:12;21.17;;;13.30;;
2546;SDS011;1283;47.982;7.834;2023-10-19T00:28:42;26.48;;;14.25;;
2546;SDS011;1283;47.982;7.834;2023-10-19T00:31:12;27.13;;;14.35;;
2546;SDS011;1283;47.982;7.834;2023-10-19T00:33:39;23.17;;;13.98;;
2546;SDS011;1283;47.982;7.834;2023-10-19T00:36:06;27.60;;;15.90;;
2546;SDS011;1283;47.982;7.834;2023-10-19T00:38:33;28.38;;;15.50;;
2546;SDS011;1283;47.982;7.834;2023-10-19T00:41:07;29.90;;;16.15;;
2546;SDS011;1283;47.982;7.834;2023-10-19T00:43:38;29.63;;;15.77;;
2546;SDS011;1283;47.982;7.834;2023-10-19T00:46:09;25.83;;;16.63;;
2546;SDS011;1283;47.982;7.834;2023-10-19T00:48:41;26.02;;;16.98;;
2546;SDS011;1283;47.982;7.834;2023-10-19T00:51:10;23.30;;;15.48;;
2546;SDS011;1283;47.982;7.834;2023-10-19T00:53:51;24.75;;;16.15;;
2546;SDS011;1283;47.982;7.834;2023-10-19T00:56:19;25.45;;;16.67;;
2546;SDS011;1283;47.982;7.834;2023-10-19T00:58:47;27.88;;;16.50;;
2546;SDS011;1283;47.982;7.834;2023-10-19T01:01:18;25.95;;;15.75;;
2546;SDS011;1283;47.982;7.834;2023-10-19T01:03:51;30.25;;;16.05;;
2546;SDS011;1283;47.982;7.834;2023-10-19T01:06:21;23.38;;;14.05;;
2546;SDS011;1283;47.982;7.834;2023-10-19T01:08:47;24.05;;;15.43;;
2546;SDS011;1283;47.982;7.834;2023-10-19T01:11:16;24.65;;;14.77;;
2546;SDS011;1283;47.982;7.834;2023-10-19T01:13:45;22.23;;;14.45;;
2546;SDS011;1283;47.982;7.834;2023-10-19T01:16:13;23.73;;;13.65;;
2546;SDS011;1283;47.982;7.834;2023-10-19T01:18:47;21.02;;;13.77;;
2546;SDS011;1283;47.982;7.834;2023-10-19T01:21:19;25.83;;;14.65;;
2546;SDS011;1283;47.982;7.834;2023-10-19T01:23:53;22.58;;;14.80;;
2546;SDS011;1283;47.982;7.834;2023-10-19T01:26:20;20.13;;;13.65;;
2546;SDS011;1283;47.982;7.834;2023-10-19T01:28:51;22.83;;;14.25;;
2546;SDS011;1283;47.982;7.834;2023-10-19T01:31:25;22.98;;;12.75;;
2546;SDS011;1283;47.982;7.834;2023-10-19T01:34:04;24.85;;;12.82;;
2546;SDS011;1283;47.982;7.834;2023-10-19T01:36:32;20.77;;;12.77;;
2546;SDS011;1283;47.982;7.834;2023-10-19T01:39:04;19.63;;;11.85;;
2546;SDS011;1283;47.982;7.834;2023-10-19T01:41:34;16.48;;;11.00;;
2546;SDS011;1283;47.982;7.834;2023-10-19T01:44:01;18.63;;;10.55;;
2546;SDS011;1283;47.982;7.834;2023-10-19T01:46:29;13.93;;;8.98;;
2546;SDS011;1283;47.982;7.834;2023-10-19T01:48:58;18.45;;;8.65;;
2546;SDS011;1283;47.982;7.834;2023-10-19T01:51:27;8.15;;;5.57;;
2546;SDS011;1283;47.982;7.834;2023-10-19T01:53:54;6.07;;;4.28;;
2546;SDS011;1283;47.982;7.834;2023-10-19T01:56:22;7.63;;;4.57;;
2546;SDS011;1283;47.982;7.834;2023-10-19T01:58:49;4.95;;;3.40;;
2546;SDS011;1283;47.982;7.834;2023-10-19T02:01:17;9.02;;;3.97;;
2546;SDS011;1283;47.982;7.834;2023-10-19T02:03:53;7.80;;;3.58;;
2546;SDS011;1283;47.982;7.834;2023-10-19T02:06:20;10.23;;;4.30;;
2546;SDS011;1283;47.982;7.834;2023-10-19T02:11:15;9.40;;;5.18;;
2546;SDS011;1283;47.982;7.834;2023-10-19T02:13:44;5.97;;;3.90;;
2546;SDS011;1283;47.982;7.834;2023-10-19T02:16:12;9.10;;;4.70;;
2546;SDS011;1283;47.982;7.834;2023-10-19T02:18:40;11.07;;;5.25;;
2546;SDS011;1283;47.982;7.834;2023-10-19T02:21:07;9.02;;;5.20;;
2546;SDS011;1283;47.982;7.834;2023-10-19T02:23:33;11.23;;;6.80;;
2546;SDS011;1283;47.982;7.834;2023-10-19T02:26:00;11.88;;;6.60;;
2546;SDS011;1283;47.982;7.834;2023-10-19T02:28:28;12.35;;;7.20;;
2546;SDS011;1283;47.982;7.834;2023-10-19T02:30:58;14.25;;;6.53;;
2546;SDS011;1283;47.982;7.834;2023-10-19T02:33:35;10.57;;;7.10;;
2546;SDS011;1283;47.982;7.834;2023-10-19T02:36:02;13.35;;;7.25;;
2546;SDS011;1283;47.982;7.834;2023-10-19T02:40:55;14.55;;;8.07;;
2546;SDS011;1283;47.982;7.834;2023-10-19T02:43:20;16.75;;;9.57;;
2546;SDS011;1283;47.982;7.834;2023-10-19T02:45:49;16.15;;;9.10;;
2546;SDS011;1283;47.982;7.834;2023-10-19T02:48:17;15.27;;;8.45;;
2546;SDS011;1283;47.982;7.834;2023-10-19T02:50:43;16.90;;;9.90;;
2546;SDS011;1283;47.982;7.834;2023-10-19T02:53:09;17.27;;;9.18;;
2546;SDS011;1283;47.982;7.834;2023-10-19T02:55:38;22.98;;;10.00;;
2546;SDS011;1283;47.982;7.834;2023-10-19T02:58:05;13.73;;;8.88;;
2546;SDS011;1283;47.982;7.834;2023-10-19T03:00:32;13.70;;;8.20;;
2546;SDS011;1283;47.982;7.834;2023-10-19T03:02:59;16.33;;;8.55;;
2546;SDS011;1283;47.982;7.834;2023-10-19T03:05:27;19.58;;;8.50;;
2546;SDS011;1283;47.982;7.834;2023-10-19T03:07:53;14.93;;;7.90;;
2546;SDS011;1283;47.982;7.834;2023-10-19T03:10:20;15.77;;;8.35;;
2546;SDS011;1283;47.982;7.834;2023-10-19T03:12:49;12.95;;;8.18;;
2546;SDS011;1283;47.982;7.834;2023-10-19T03:15:16;15.88;;;7.95;;
2546;SDS011;1283;47.982;7.834;2023-10-19T03:17:42;15.98;;;6.68;;
2546;SDS011;1283;47.982;7.834;2023-10-19T03:20:09;15.40;;;6.70;;
2546;SDS011;1283;47.982;7.834;2023-10-19T03:22:37;11.48;;;6.65;;
2546;SDS011;1283;47.982;7.834;2023-10-19T03:25:04;11.85;;;6.88;;
2546;SDS011;1283;47.982;7.834;2023-10-19T03:27:57;10.63;;;6.00;;
2546;SDS011;1283;47.982;7.834;2023-10-19T03:30:31;13.85;;;5.50;;
2546;SDS011;1283;47.982;7.834;2023-10-19T03:32:58;10.25;;;5.07;;
2546;SDS011;1283;47.982;7.834;2023-10-19T03:35:26;8.38;;;5.28;;
2546;SDS011;1283;47.982;7.834;2023-10-19T03:37:53;10.63;;;5.15;;
2546;SDS011;1283;47.982;7.834;2023-10-19T03:40:23;8.50;;;5.35;;
2546;SDS011;1283;47.982;7.834;2023-10-19T03:42:54;10.65;;;6.05;;
2546;SDS011;1283;47.982;7.834;2023-10-19T03:45:21;8.60;;;4.72;;
2546;SDS011;1283;47.982;7.834;2023-10-19T03:47:50;7.15;;;4.63;;
2546;SDS011;1283;47.982;7.834;2023-10-19T03:50:18;10.30;;;5.10;;
2546;SDS011;1283;47.982;7.834;2023-10-19T03:52:46;8.23;;;4.78;;
2546;SDS011;1283;47.982;7.834;2023-10-19T03:55:14;7.65;;;4.68;;
2546;SDS011;1283;47.982;7.834;2023-10-19T03:57:44;7.55;;;4.78;;
2546;SDS011;1283;47.982;7.834;2023-10-19T04:00:17;11.20;;;5.00;;
2546;SDS011;1283;47.982;7.834;2023-10-19T04:02:47;8.57;;;5.03;;
2546;SDS011;1283;47.982;7.834;2023-10-19T04:05:15;10.07;;;5.40;;
2546;SDS011;1283;47.982;7.834;2023-10-19T04:07:45;17.65;;;5.63;;
2546;SDS011;1283;47.982;7.834;2023-10-19T04:10:11;7.68;;;5.35;;
2546;SDS011;1283;47.982;7.834;2023-10-19T04:12:56;7.68;;;4.70;;
2546;SDS011;1283;47.982;7.834;2023-10-19T04:15:24;11.40;;;5.50;;
2546;SDS011;1283;47.982;7.834;2023-10-19T04:17:51;10.10;;;4.93;;
2546;SDS011;1283;47.982;7.834;2023-10-19T04:20:20;7.88;;;4.65;;
2546;SDS011;1283;47.982;7.834;2023-10-19T04:22:54;9.32;;;5.03;;
2546;SDS011;1283;47.982;7.834;2023-10-19T04:25:21;7.32;;;4.40;;
2546;SDS011;1283;47.982;7.834;2023-10-19T04:27:51;9.05;;;3.42;;
2546;SDS011;1283;47.982;7.834;2023-10-19T04:30:18;8.60;;;5.47;;
2546;SDS011;1283;47.982;7.834;2023-10-19T04:32:48;11.95;;;3.03;;
2546;SDS011;1283;47.982;7.834;2023-10-19T04:35:15;6.00;;;2.90;;
2546;SDS011;1283;47.982;7.834;2023-10-19T04:37:46;4.53;;;2.70;;
2546;SDS011;1283;47.982;7.834;2023-10-19T04:40:13;7.53;;;4.05;;
2546;SDS011;1283;47.982;7.834;2023-10-19T04:42:39;4.65;;;3.50;;
2546;SDS011;1283;47.982;7.834;2023-10-19T04:45:06;10.73;;;3.72;;
2546;SDS011;1283;47.982;7.834;2023-10-19T04:47:34;7.00;;;3.83;;
2546;SDS011;1283;47.982;7.834;2023-10-19T04:50:01;6.93;;;3.40;;
2546;SDS011;1283;47.982;7.834;2023-10-19T04:52:27;8.77;;;2.95;;
2546;SDS011;1283;47.982;7.834;2023-10-19T04:54:54;8.07;;;2.72;;
2546;SDS011;1283;47.982;7.834;2023-10-19T04:57:21;7.95;;;2.33;;
2546;SDS011;1283;47.982;7.834;2023-10-19T04:59:47;2.92;;;1.70;;
2546;SDS011;1283;47.982;7.834;2023-10-19T05:02:14;5.30;;;2.10;;
2546;SDS011;1283;47.982;7.834;2023-10-19T05:04:42;9.15;;;2.40;;
2546;SDS011;1283;47.982;7.834;2023-10-19T05:07:10;10.02;;;4.28;;
2546;SDS011;1283;47.982;7.834;2023-10-19T05:09:37;5.13;;;3.17;;
2546;SDS011;1283;47.982;7.834;2023-10-19T05:12:04;3.75;;;2.17;;
2546;SDS011;1283;47.982;7.834;2023-10-19T05:14:34;10.27;;;2.25;;
2546;SDS011;1283;47.982;7.834;2023-10-19T05:17:01;6.32;;;1.90;;
2546;SDS011;1283;47.982;7.834;2023-10-19T05:19:29;3.25;;;2.08;;
2546;SDS011;1283;47.982;7.834;2023-10-19T05:21:57;3.92;;;2.65;;
2546;SDS011;1283;47.982;7.834;2023-10-19T05:24:25;9.02;;;2.05;;
2546;SDS011;1283;47.982;7.834;2023-10-19T05:26:53;3.42;;;2.08;;
2546;SDS011;1283;47.982;7.834;2023-10-19T05:29:19;9.27;;;2.17;;
2546;SDS011;1283;47.982;7.834;2023-10-19T05:31:46;12.27;;;2.40;;
2546;SDS011;1283;47.982;7.834;2023-10-19T05:34:12;8.98;;;2.85;;
2546;SDS011;1283;47.982;7.834;2023-10-19T05:36:41;9.15;;;3.38;;
2546;SDS011;1283;47.982;7.834;2023-10-19T05:39:12;10.40;;;3.70;;
2546;SDS011;1283;47.982;7.834;2023-10-19T05:41:39;11.80;;;4.43;;
2546;SDS011;1283;47.982;7.834;2023-10-19T05:44:05;10.27;;;4.93;;
2546;SDS011;1283;47.982;7.834;2023-10-19T05:46:32;11.43;;;6.03;;
2546;SDS011;1283;47.982;7.834;2023-10-19T05:48:58;14.70;;;6.65;;
2546;SDS011;1283;47.982;7.834;2023-10-19T05:51:26;11.07;;;5.53;;
2546;SDS011;1283;47.982;7.834;2023-10-19T05:53:53;13.15;;;5.53;;
2546;SDS011;1283;47.982;7.834;2023-10-19T05:56:27;9.75;;;5.25;;
2546;SDS011;1283;47.982;7.834;2023-10-19T05:58:55;10.27;;;5.80;;
2546;SDS011;1283;47.982;7.834;2023-10-19T06:01:22;10.82;;;5.78;;
2546;SDS011;1283;47.982;7.834;2023-10-19T06:03:48;9.88;;;4.90;;
2546;SDS011;1283;47.982;7.834;2023-10-19T06:06:15;8.07;;;4.40;;
2546;SDS011;1283;47.982;7.834;2023-10-19T06:08:42;10.57;;;3.80;;
2546;SDS011;1283;47.982;7.834;2023-10-19T06:11:08;8.32;;;4.68;;
2546;SDS011;1283;47.982;7.834;2023-10-19T06:13:36;6.55;;;4.35;;
2546;SDS011;1283;47.982;7.834;2023-10-19T06:16:03;10.35;;;4.93;;
2546;SDS011;1283;47.982;7.834;2023-10-19T06:18:30;12.40;;;5.30;;
2546;SDS011;1283;47.982;7.834;2023-10-19T06:20:56;18.10;;;6.20;;
2546;SDS011;1283;47.982;7.834;2023-10-19T06:23:23;10.27;;;6.05;;
2546;SDS011;1283;47.982;7.834;2023-10-19T06:25:49;10.10;;;5.60;;
2546;SDS011;1283;47.982;7.834;2023-10-19T06:28:16;12.70;;;6.22;;
2546;SDS011;1283;47.982;7.834;2023-10-19T06:30:44;10.40;;;6.50;;
2546;SDS011;1283;47.982;7.834;2023-10-19T06:33:13;13.68;;;6.53;;
2546;SDS011;1283;47.982;7.834;2023-10-19T06:35:39;14.82;;;6.82;;
2546;SDS011;1283;47.982;7.834;2023-10-19T06:38:06;14.75;;;6.55;;
2546;SDS011;1283;47.982;7.834;2023-10-19T06:40:34;13.13;;;6.13;;
2546;SDS011;1283;47.982;7.834;2023-10-19T06:43:02;10.02;;;5.90;;
2546;SDS011;1283;47.982;7.834;2023-10-19T06:45:30;5.25;;;3.35;;
2546;SDS011;1283;47.982;7.834;2023-10-19T06:47:58;14.70;;;5.35;;
2546;SDS011;1283;47.982;7.834;2023-10-19T06:50:25;9.77;;;5.47;;
2546;SDS011;1283;47.982;7.834;2023-10-19T06:52:52;15.50;;;5.30;;
2546;SDS011;1283;47.982;7.834;2023-10-19T06:55:20;15.20;;;6.30;;
2546;SDS011;1283;47.982;7.834;2023-10-19T06:57:48;16.58;;;6.72;;
2546;SDS011;1283;47.982;7.834;2023-10-19T07:00:16;16.00;;;6.38;;
2546;SDS011;1283;47.982;7.834;2023-10-19T07:02:45;10.88;;;6.55;;
2546;SDS011;1283;47.982;7.834;2023-10-19T07:05:13;14.90;;;7.55;;
2546;SDS011;1283;47.982;7.834;2023-10-19T07:07:43;13.63;;;7.32;;
2546;SDS011;1283;47.982;7.834;2023-10-19T07:10:11;13.82;;;7.22;;
2546;SDS011;1283;47.982;7.834;2023-10-19T07:12:38;12.32;;;7.20;;
2546;SDS011;1283;47.982;7.834;2023-10-19T07:15:06;13.95;;;6.20;;
2546;SDS011;1283;47.982;7.834;2023-10-19T07:17:34;11.40;;;6.22;;
2546;SDS011;1283;47.982;7.834;2023-10-19T07:20:03;15.98;;;6.60;;
2546;SDS011;1283;47.982;7.834;2023-10-19T07:22:32;7.32;;;5.45;;
2546;SDS011;1283;47.982;7.834;2023-10-19T07:24:59;11.80;;;6.30;;
2546;SDS011;1283;47.982;7.834;2023-10-19T07:27:26;10.90;;;6.38;;
2546;SDS011;1283;47.982;7.834;2023-10-19T07:29:53;11.63;;;6.70;;
2546;SDS011;1283;47.982;7.834;2023-10-19T07:32:20;11.50;;;6.15;;
2546;SDS011;1283;47.982;7.834;2023-10-19T07:34:46;14.60;;;5.70;;
2546;SDS011;1283;47.982;7.834;2023-10-19T07:37:13;12.00;;;5.70;;
2546;SDS011;1283;47.982;7.834;2023-10-19T07:39:41;11.32;;;6.43;;
2546;SDS011;1283;47.982;7.834;2023-10-19T07:42:11;12.65;;;6.25;;
2546;SDS011;1283;47.982;7.834;2023-10-19T07:44:37;11.38;;;6.20;;
2546;SDS011;1283;47.982;7.834;2023-10-19T07:47:04;7.93;;;5.15;;
2546;SDS011;1283;47.982;7.834;2023-10-19T07:49:32;8.70;;;5.20;;
2546;SDS011;1283;47.982;7.834;2023-10-19T07:51:58;9.18;;;4.93;;
2546;SDS011;1283;47.982;7.834;2023-10-19T07:54:25;7.07;;;4.72;;
2546;SDS011;1283;47.982;7.834;2023-10-19T07:56:54;9.55;;;5.55;;
2546;SDS011;1283;47.982;7.834;2023-10-19T07:59:20;12.90;;;6.47;;
2546;SDS011;1283;47.982;7.834;2023-10-19T08:01:47;12.38;;;5.88;;
2546;SDS011;1283;47.982;7.834;2023-10-19T08:04:13;16.55;;;6.38;;
2546;SDS011;1283;47.982;7.834;2023-10-19T08:06:39;11.35;;;5.20;;
2546;SDS011;1283;47.982;7.834;2023-10-19T08:09:06;6.38;;;3.95;;
2546;SDS011;1283;47.982;7.834;2023-10-19T08:11:36;6.95;;;3.38;;
2546;SDS011;1283;47.982;7.834;2023-10-19T08:14:04;7.00;;;3.70;;
2546;SDS011;1283;47.982;7.834;2023-10-19T08:16:31;7.65;;;3.45;;
2546;SDS011;1283;47.982;7.834;2023-10-19T08:18:57;10.07;;;4.47;;
2546;SDS011;1283;47.982;7.834;2023-10-19T08:21:24;9.95;;;4.70;;
2546;SDS011;1283;47.982;7.834;2023-10-19T08:23:53;8.52;;;4.93;;
2546;SDS011;1283;47.982;7.834;2023-10-19T08:26:20;11.75;;;5.13;;
2546;SDS011;1283;47.982;7.834;2023-10-19T08:28:47;11.43;;;6.03;;
2546;SDS011;1283;47.982;7.834;2023-10-19T08:31:16;11.38;;;5.00;;
2546;SDS011;1283;47.982;7.834;2023-10-19T08:33:43;12.60;;;5.38;;
2546;SDS011;1283;47.982;7.834;2023-10-19T08:36:17;14.13;;;5.70;;
2546;SDS011;1283;47.982;7.834;2023-10-19T08:38:45;13.30;;;6.45;;
2546;SDS011;1283;47.982;7.834;2023-10-19T08:41:11;12.27;;;6.18;;
2546;SDS011;1283;47.982;7.834;2023-10-19T08:43:38;6.72;;;2.60;;
2546;SDS011;1283;47.982;7.834;2023-10-19T08:46:05;6.57;;;2.70;;
2546;SDS011;1283;47.982;7.834;2023-10-19T08:48:35;11.75;;;2.83;;
2546;SDS011;1283;47.982;7.834;2023-10-19T08:51:03;3.97;;;2.10;;
2546;SDS011;1283;47.982;7.834;2023-10-19T08:53:36;4.53;;;2.25;;
2546;SDS011;1283;47.982;7.834;2023-10-19T08:56:05;4.82;;;1.50;;
2546;SDS011;1283;47.982;7.834;2023-10-19T08:58:33;3.50;;;1.33;;
2546;SDS011;1283;47.982;7.834;2023-10-19T09:01:00;3.50;;;0.98;;
2546;SDS011;1283;47.982;7.834;2023-10-19T09:03:31;2.22;;;0.90;;
2546;SDS011;1283;47.982;7.834;2023-10-19T09:06:01;4.35;;;1.00;;
2546;SDS011;1283;47.982;7.834;2023-10-19T09:08:30;2.40;;;1.25;;
2546;SDS011;1283;47.982;7.834;2023-10-19T09:11:05;5.22;;;1.40;;
2546;SDS011;1283;47.982;7.834;2023-10-19T09:13:38;2.65;;;1.23;;
2546;SDS011;1283;47.982;7.834;2023-10-19T09:16:09;3.00;;;1.42;;
2546;SDS011;1283;47.982;7.834;2023-10-19T09:18:36;4.85;;;1.60;;
2546;SDS011;1283;47.982;7.834;2023-10-19T09:21:06;3.20;;;1.98;;
2546;SDS011;1283;47.982;7.834;2023-10-19T09:23:36;1.73;;;1.13;;
2546;SDS011;1283;47.982;7.834;2023-10-19T09:26:03;4.30;;;1.20;;
2546;SDS011;1283;47.982;7.834;2023-10-19T09:28:32;2.80;;;1.20;;
2546;SDS011;1283;47.982;7.834;2023-10-19T09:31:01;4.35;;;1.20;;
2546;SDS011;1283;47.982;7.834;2023-10-19T09:33:28;3.63;;;1.42;;
2546;SDS011;1283;47.982;7.834;2023-10-19T09:35:54;4.15;;;1.50;;
2546;SDS011;1283;47.982;7.834;2023-10-19T09:38:25;6.63;;;1.63;;
2546;SDS011;1283;47.982;7.834;2023-10-19T09:40:51;2.63;;;1.40;;
2546;SDS011;1283;47.982;7.834;2023-10-19T09:43:21;7.03;;;1.70;;
2546;SDS011;1283;47.982;7.834;2023-10-19T09:45:51;3.50;;;1.70;;
2546;SDS011;1283;47.982;7.834;2023-10-19T09:48:19;5.65;;;1.50;;
2546;SDS011;1283;47.982;7.834;2023-10-19T09:50:48;2.90;;;1.42;;
2546;SDS011;1283;47.982;7.834;2023-10-19T09:53:20;2.72;;;1.50;;
2546;SDS011;1283;47.982;7.834;2023-10-19T09:55:49;6.80;;;1.58;;
2546;SDS011;1283;47.982;7.834;2023-10-19T09:58:16;2.25;;;1.15;;
2546;SDS011;1283;47.982;7.834;2023-10-19T10:00:46;2.33;;;1.13;;
2546;SDS011;1283;47.982;7.834;2023-10-19T10:08:39;1.27;;;0.80;;
2546;SDS011;1283;47.982;7.834;2023-10-19T10:11:18;0.98;;;0.70;;
2546;SDS011;1283;47.982;7.834;2023-10-19T10:13:46;3.45;;;0.80;;
2546;SDS011;1283;47.982;7.834;2023-10-19T10:16:15;4.55;;;1.17;;
2546;SDS011;1283;47.982;7.834;2023-10-19T10:18:43;2.95;;;1.20;;
2546;SDS011;1283;47.982;7.834;2023-10-19T10:21:10;3.55;;;1.10;;
2546;SDS011;1283;47.982;7.834;2023-10-19T10:23:41;0.50;;;0.50;;
2546;SDS011;1283;47.982;7.834;2023-10-19T10:26:09;1.85;;;1.23;;
2546;SDS011;1283;47.982;7.834;2023-10-19T10:28:38;1.02;;;0.60;;
2546;SDS011;1283;47.982;7.834;2023-10-19T10:31:11;1.90;;;0.80;;
2546;SDS011;1283;47.982;7.834;2023-10-19T10:33:46;3.17;;;0.80;;
2546;SDS011;1283;47.982;7.834;2023-10-19T10:36:13;0.68;;;0.65;;
2546;SDS011;1283;47.982;7.834;2023-10-19T10:38:42;3.25;;;1.00;;
2546;SDS011;1283;47.982;7.834;2023-10-19T10:41:08;2.78;;;0.70;;
2546;SDS011;1283;47.982;7.834;2023-10-19T10:43:48;1.23;;;0.90;;
2546;SDS011;1283;47.982;7.834;2023-10-19T10:46:17;2.83;;;0.93;;
2546;SDS011;1283;47.982;7.834;2023-10-19T10:48:44;3.17;;;0.85;;
2546;SDS011;1283;47.982;7.834;2023-10-19T10:51:20;4.68;;;1.20;;
2546;SDS011;1283;47.982;7.834;2023-10-19T10:53:48;1.35;;;0.75;;
2546;SDS011;1283;47.982;7.834;2023-10-19T10:56:15;2.17;;;1.20;;
2546;SDS011;1283;47.982;7.834;2023-10-19T10:58:41;1.92;;;1.15;;
2546;SDS011;1283;47.982;7.834;2023-10-19T11:01:09;6.38;;;1.92;;
2546;SDS011;1283;47.982;7.834;2023-10-19T11:03:36;2.40;;;1.30;;
2546;SDS011;1283;47.982;7.834;2023-10-19T11:06:03;2.35;;;0.88;;
2546;SDS011;1283;47.982;7.834;2023-10-19T11:08:33;1.60;;;1.10;;
2546;SDS011;1283;47.982;7.834;2023-10-19T11:11:01;4.50;;;1.48;;
2546;SDS011;1283;47.982;7.834;2023-10-19T11:13:29;1.80;;;1.17;;
2546;SDS011;1283;47.982;7.834;2023-10-19T11:15:58;2.85;;;1.02;;
2546;SDS011;1283;47.982;7.834;2023-10-19T11:18:30;2.88;;;1.52;;
2546;SDS011;1283;47.982;7.834;2023-10-19T11:20:59;4.43;;;1.45;;
2546;SDS011;1283;47.982;7.834;2023-10-19T11:23:36;3.03;;;2.08;;
2546;SDS011;1283;47.982;7.834;2023-10-19T11:26:06;3.15;;;0.88;;
2546;SDS011;1283;47.982;7.834;2023-10-19T11:28:33;2.97;;;0.95;;
2546;SDS011;1283;47.982;7.834;2023-10-19T11:31:10;1.83;;;0.80;;
2546;SDS011;1283;47.982;7.834;2023-10-19T11:33:42;2.50;;;0.93;;
2546;SDS011;1283;47.982;7.834;2023-10-19T11:36:09;1.95;;;1.23;;
2546;SDS011;1283;47.982;7.834;2023-10-19T11:38:37;1.83;;;1.00;;
2546;SDS011;1283;47.982;7.834;2023-10-19T11:41:05;2.30;;;1.10;;
2546;SDS011;1283;47.982;7.834;2023-10-19T11:43:32;1.77;;;1.00;;
2546;SDS011;1283;47.982;7.834;2023-10-19T11:45:59;2.00;;;1.00;;
2546;SDS011;1283;47.982;7.834;2023-10-19T11:48:25;5.13;;;1.10;;
2546;SDS011;1283;47.982;7.834;2023-10-19T11:50:53;1.75;;;0.95;;
2546;SDS011;1283;47.982;7.834;2023-10-19T11:53:20;3.97;;;1.20;;
2546;SDS011;1283;47.982;7.834;2023-10-19T11:55:46;4.38;;;1.63;;
2546;SDS011;1283;47.982;7.834;2023-10-19T11:58:14;5.47;;;2.38;;
2546;SDS011;1283;47.982;7.834;2023-10-19T12:00:40;6.32;;;2.13;;
2546;SDS011;1283;47.982;7.834;2023-10-19T12:03:08;3.83;;;1.83;;
2546;SDS011;1283;47.982;7.834;2023-10-19T12:05:35;3.60;;;1.67;;
2546;SDS011;1283;47.982;7.834;2023-10-19T12:08:03;2.63;;;1.63;;
2546;SDS011;1283;47.982;7.834;2023-10-19T12:10:31;1.77;;;0.70;;
2546;SDS011;1283;47.982;7.834;2023-10-19T12:13:00;2.95;;;0.82;;
2546;SDS011;1283;47.982;7.834;2023-10-19T12:15:27;1.85;;;0.75;;
2546;SDS011;1283;47.982;7.834;2023-10-19T12:17:55;2.03;;;0.70;;
2546;SDS011;1283;47.982;7.834;2023-10-19T12:20:22;0.68;;;0.60;;
2546;SDS011;1283;47.982;7.834;2023-10-19T12:22:49;1.58;;;0.50;;
2546;SDS011;1283;47.982;7.834;2023-10-19T12:25:18;1.60;;;0.40;;
2546;SDS011;1283;47.982;7.834;2023-10-19T12:27:45;1.95;;;0.73;;
2546;SDS011;1283;47.982;7.834;2023-10-19T12:30:11;1.20;;;0.90;;
2546;SDS011;1283;47.982;7.834;2023-10-19T12:32:45;3.42;;;1.17;;
2546;SDS011;1283;47.982;7.834;2023-10-19T12:35:14;1.42;;;0.80;;
2546;SDS011;1283;47.982;7.834;2023-10-19T12:37:41;0.28;;;0.28;;
2546;SDS011;1283;47.982;7.834;2023-10-19T12:40:11;0.95;;;0.55;;
2546;SDS011;1283;47.982;7.834;2023-10-19T12:42:52;0.68;;;0.50;;
2546;SDS011;1283;47.982;7.834;2023-10-19T12:45:19;0.73;;;0.60;;
2546;SDS011;1283;47.982;7.834;2023-10-19T12:47:46;1.05;;;0.50;;
2546;SDS011;1283;47.982;7.834;2023-10-19T12:50:13;3.08;;;0.77;;
2546;SDS011;1283;47.982;7.834;2023-10-19T12:52:40;2.90;;;0.45;;
2546;SDS011;1283;47.982;7.834;2023-10-19T12:55:07;1.35;;;0.60;;
2546;SDS011;1283;47.982;7.834;2023-10-19T12:57:34;3.17;;;0.60;;
2546;SDS011;1283;47.982;7.834;2023-10-19T13:00:02;1.02;;;0.55;;
2546;SDS011;1283;47.982;7.834;2023-10-19T13:02:48;2.10;;;0.52;;
2546;SDS011;1283;47.982;7.834;2023-10-19T13:05:15;2.35;;;0.90;;
2546;SDS011;1283;47.982;7.834;2023-10-19T13:07:43;1.10;;;0.80;;
2546;SDS011;1283;47.982;7.834;2023-10-19T13:10:10;3.03;;;0.70;;
2546;SDS011;1283;47.982;7.834;2023-10-19T13:12:36;2.35;;;0.68;;
2546;SDS011;1283;47.982;7.834;2023-10-19T13:15:05;1.83;;;0.70;;
2546;SDS011;1283;47.982;7.834;2023-10-19T13:17:37;4.38;;;0.60;;
2546;SDS011;1283;47.982;7.834;2023-10-19T13:20:05;1.15;;;0.57;;
2546;SDS011;1283;47.982;7.834;2023-10-19T13:22:41;0.80;;;0.55;;
2546;SDS011;1283;47.982;7.834;2023-10-19T13:25:07;1.88;;;0.80;;
2546;SDS011;1283;47.982;7.834;2023-10-19T13:27:37;2.17;;;0.82;;
2546;SDS011;1283;47.982;7.834;2023-10-19T13:30:09;1.45;;;0.90;;
2546;SDS011;1283;47.982;7.834;2023-10-19T13:32:36;1.33;;;0.75;;
2546;SDS011;1283;47.982;7.834;2023-10-19T13:35:03;1.88;;;0.80;;
2546;SDS011;1283;47.982;7.834;2023-10-19T13:37:30;1.02;;;0.70;;
2546;SDS011;1283;47.982;7.834;2023-10-19T13:39:57;1.50;;;0.80;;
2546;SDS011;1283;47.982;7.834;2023-10-19T13:42:24;3.25;;;0.75;;
2546;SDS011;1283;47.982;7.834;2023-10-19T13:44:50;1.50;;;0.70;;
2546;SDS011;1283;47.982;7.834;2023-10-19T13:47:18;1.85;;;0.90;;
2546;SDS011;1283;47.982;7.834;2023-10-19T13:49:44;1.08;;;0.45;;
2546;SDS011;1283;47.982;7.834;2023-10-19T13:52:12;1.88;;;0.90;;
2546;SDS011;1283;47.982;7.834;2023-10-19T13:54:40;1.95;;;0.60;;
2546;SDS011;1283;47.982;7.834;2023-10-19T13:57:07;1.83;;;0.60;;
2546;SDS011;1283;47.982;7.834;2023-10-19T13:59:35;1.55;;;0.80;;
2546;SDS011;1283;47.982;7.834;2023-10-19T14:02:02;1.40;;;0.55;;
2546;SDS011;1283;47.982;7.834;2023-10-19T14:04:30;1.00;;;0.90;;
2546;SDS011;1283;47.982;7.834;2023-10-19T14:06:56;1.13;;;0.52;;
2546;SDS011;1283;47.982;7.834;2023-10-19T14:09:22;1.50;;;0.80;;
2546;SDS011;1283;47.982;7.834;2023-10-19T14:11:51;1.30;;;0.65;;
2546;SDS011;1283;47.982;7.834;2023-10-19T14:14:18;1.35;;;0.70;;
2546;SDS011;1283;47.982;7.834;2023-10-19T14:16:44;1.67;;;0.90;;
2546;SDS011;1283;47.982;7.834;2023-10-19T14:19:11;1.77;;;0.93;;
2546;SDS011;1283;47.982;7.834;2023-10-19T14:21:41;2.22;;;0.80;;
2546;SDS011;1283;47.982;7.834;2023-10-19T14:24:11;1.83;;;0.70;;
2546;SDS011;1283;47.982;7.834;2023-10-19T14:26:37;1.42;;;0.70;;
2546;SDS011;1283;47.982;7.834;2023-10-19T14:29:05;0.68;;;0.60;;
2546;SDS011;1283;47.982;7.834;2023-10-19T14:31:32;1.25;;;0.75;;
2546;SDS011;1283;47.982;7.834;2023-10-19T14:33:58;1.48;;;0.70;;
2546;SDS011;1283;47.982;7.834;2023-10-19T14:36:25;2.45;;;0.90;;
2546;SDS011;1283;47.982;7.834;2023-10-19T14:38:53;2.83;;;0.85;;
2546;SDS011;1283;47.982;7.834;2023-10-19T14:41:19;1.65;;;1.15;;
2546;SDS011;1283;47.982;7.834;2023-10-19T14:43:46;3.20;;;1.60;;
2546;SDS011;1283;47.982;7.834;2023-10-19T14:46:12;2.55;;;1.15;;
2546;SDS011;1283;47.982;7.834;2023-10-19T14:48:39;4.00;;;1.85;;
2546;SDS011;1283;47.982;7.834;2023-10-19T14:51:05;4.93;;;2.28;;
2546;SDS011;1283;47.982;7.834;2023-10-19T14:53:33;4.30;;;1.48;;
2546;SDS011;1283;47.982;7.834;2023-10-19T14:56:01;19.48;;;8.07;;
2546;SDS011;1283;47.982;7.834;2023-10-19T14:58:28;5.80;;;1.85;;
2546;SDS011;1283;47.982;7.834;2023-10-19T15:00:56;5.30;;;1.98;;
2546;SDS011;1283;47.982;7.834;2023-10-19T15:03:23;3.22;;;1.10;;
2546;SDS011;1283;47.982;7.834;2023-10-19T15:05:50;2.72;;;1.80;;
2546;SDS011;1283;47.982;7.834;2023-10-19T15:08:18;3.13;;;1.40;;
2546;SDS011;1283;47.982;7.834;2023-10-19T15:10:46;3.13;;;1.25;;
2546;SDS011;1283;47.982;7.834;2023-10-19T15:13:14;1.20;;;1.10;;
2546;SDS011;1283;47.982;7.834;2023-10-19T15:15:41;5.32;;;1.20;;
2546;SDS011;1283;47.982;7.834;2023-10-19T15:18:07;2.95;;;1.63;;
2546;SDS011;1283;47.982;7.834;2023-10-19T15:20:34;1.50;;;1.15;;
2546;SDS011;1283;47.982;7.834;2023-10-19T15:23:01;3.00;;;1.33;;
2546;SDS011;1283;47.982;7.834;2023-10-19T15:25:28;3.10;;;1.67;;